sensor_id;sensor_type;location;lat;lon;timestamp;P1;durP1;ratioP1;P2;durP2;ratioP2
65998;SDS011;52766;56.008;37.440;2023-04-01T00:01:13;22.55;;;9.90;;
65998;SDS011;52766;56.008;37.440;2023-04-01T00:04:34;23.70;;;9.50;;
65998;SDS011;52766;56.008;37.440;2023-04-01T00:07:02;27.63;;;10.88;;
65998;SDS011;52766;56.008;37.440;2023-04-01T00:09:33;25.65;;;9.68;;
65998;SDS011;52766;56.008;37.440;2023-04-01T00:12:25;25.77;;;9.77;;
65998;SDS011;52766;56.008;37.440;2023-04-01T00:15:01;29.73;;;10.77;;
65998;SDS011;52766;56.008;37.440;2023-04-01T00:21:00;24.98;;;10.18;;
65998;SDS011;52766;56.008;37.440;2023-04-01T00:23:37;29.70;;;11.40;;
65998;SDS011;52766;56.008;37.440;2023-04-01T00:26:10;26.38;;;9.98;;
65998;SDS011;52766;56.008;37.440;2023-04-01T00:28:52;29.20;;;11.02;;
65998;SDS011;52766;56.008;37.440;2023-04-01T00:35:53;27.70;;;9.57;;
65998;SDS011;52766;56.008;37.440;2023-04-01T00:49:12;24.80;;;10.48;;
65998;SDS011;52766;56.008;37.440;2023-04-01T00:51:51;23.27;;;10.05;;
65998;SDS011;52766;56.008;37.440;2023-04-01T00:54:40;22.63;;;9.32;;
65998;SDS011;52766;56.008;37.440;2023-04-01T00:57:20;25.25;;;9.38;;
65998;SDS011;52766;56.008;37.440;2023-04-01T00:59:49;24.15;;;10.27;;
65998;SDS011;52766;56.008;37.440;2023-04-01T01:02:28;23.48;;;9.73;;
65998;SDS011;52766;56.008;37.440;2023-04-01T01:05:26;25.67;;;10.00;;
65998;SDS011;52766;56.008;37.440;2023-04-01T01:08:39;17.65;;;8.00;;
65998;SDS011;52766;56.008;37.440;2023-04-01T01:11:48;23.33;;;8.75;;
65998;SDS011;52766;56.008;37.440;2023-04-01T01:20:48;21.83;;;8.40;;
65998;SDS011;52766;56.008;37.440;2023-04-01T01:29:29;17.10;;;7.28;;
65998;SDS011;52766;56.008;37.440;2023-04-01T01:32:17;14.75;;;5.75;;
65998;SDS011;52766;56.008;37.440;2023-04-01T01:35:11;19.35;;;7.72;;
65998;SDS011;52766;56.008;37.440;2023-04-01T01:44:16;12.45;;;5.30;;
65998;SDS011;52766;56.008;37.440;2023-04-01T01:46:48;12.20;;;5.15;;
65998;SDS011;52766;56.008;37.440;2023-04-01T01:49:25;14.43;;;6.13;;
65998;SDS011;52766;56.008;37.440;2023-04-01T01:51:58;10.30;;;4.45;;
65998;SDS011;52766;56.008;37.440;2023-04-01T01:54:27;10.50;;;4.93;;
65998;SDS011;52766;56.008;37.440;2023-04-01T01:57:28;10.27;;;5.00;;
65998;SDS011;52766;56.008;37.440;2023-04-01T02:00:07;13.02;;;5.15;;
65998;SDS011;52766;56.008;37.440;2023-04-01T02:02:40;10.75;;;5.32;;
65998;SDS011;52766;56.008;37.440;2023-04-01T02:05:24;12.00;;;6.05;;
65998;SDS011;52766;56.008;37.440;2023-04-01T02:08:01;14.63;;;6.60;;
65998;SDS011;52766;56.008;37.440;2023-04-01T02:10:35;19.33;;;7.57;;
65998;SDS011;52766;56.008;37.440;2023-04-01T02:16:12;20.88;;;9.27;;
65998;SDS011;52766;56.008;37.440;2023-04-01T02:19:26;24.48;;;10.75;;
65998;SDS011;52766;56.008;37.440;2023-04-01T02:22:01;28.40;;;11.70;;
65998;SDS011;52766;56.008;37.440;2023-04-01T02:25:00;23.92;;;11.00;;
65998;SDS011;52766;56.008;37.440;2023-04-01T02:27:46;26.77;;;10.77;;
65998;SDS011;52766;56.008;37.440;2023-04-01T02:30:29;24.13;;;11.25;;
65998;SDS011;52766;56.008;37.440;2023-04-01T02:33:00;26.77;;;10.50;;
65998;SDS011;52766;56.008;37.440;2023-04-01T02:35:55;25.55;;;10.40;;
65998;SDS011;52766;56.008;37.440;2023-04-01T02:38:23;21.00;;;10.15;;
65998;SDS011;52766;56.008;37.440;2023-04-01T02:40:56;23.60;;;10.50;;
65998;SDS011;52766;56.008;37.440;2023-04-01T02:43:27;22.98;;;10.23;;
65998;SDS011;52766;56.008;37.440;2023-04-01T02:46:21;21.40;;;9.68;;
65998;SDS011;52766;56.008;37.440;2023-04-01T02:48:52;26.15;;;9.82;;
65998;SDS011;52766;56.008;37.440;2023-04-01T02:51:21;27.05;;;10.40;;
65998;SDS011;52766;56.008;37.440;2023-04-01T02:53:49;23.58;;;9.15;;
65998;SDS011;52766;56.008;37.440;2023-04-01T02:56:19;23.75;;;10.45;;
65998;SDS011;52766;56.008;37.440;2023-04-01T02:58:47;22.73;;;10.15;;
65998;SDS011;52766;56.008;37.440;2023-04-01T03:01:18;20.17;;;8.80;;
65998;SDS011;52766;56.008;37.440;2023-04-01T03:03:48;21.40;;;9.48;;
65998;SDS011;52766;56.008;37.440;2023-04-01T03:06:21;18.38;;;8.65;;
65998;SDS011;52766;56.008;37.440;2023-04-01T03:08:55;22.40;;;9.23;;
65998;SDS011;52766;56.008;37.440;2023-04-01T03:11:29;17.75;;;8.13;;
65998;SDS011;52766;56.008;37.440;2023-04-01T03:14:03;18.23;;;7.60;;
65998;SDS011;52766;56.008;37.440;2023-04-01T03:16:33;23.40;;;9.05;;
65998;SDS011;52766;56.008;37.440;2023-04-01T03:19:16;21.92;;;7.95;;
65998;SDS011;52766;56.008;37.440;2023-04-01T03:21:46;22.35;;;9.02;;
65998;SDS011;52766;56.008;37.440;2023-04-01T03:24:15;24.75;;;8.90;;
65998;SDS011;52766;56.008;37.440;2023-04-01T03:26:48;27.15;;;10.18;;
65998;SDS011;52766;56.008;37.440;2023-04-01T03:29:20;24.35;;;9.88;;
65998;SDS011;52766;56.008;37.440;2023-04-01T03:31:51;24.48;;;9.63;;
65998;SDS011;52766;56.008;37.440;2023-04-01T03:34:24;24.83;;;9.15;;
65998;SDS011;52766;56.008;37.440;2023-04-01T03:36:51;25.75;;;8.88;;
65998;SDS011;52766;56.008;37.440;2023-04-01T03:39:24;24.15;;;9.55;;
65998;SDS011;52766;56.008;37.440;2023-04-01T03:42:19;23.33;;;9.18;;
65998;SDS011;52766;56.008;37.440;2023-04-01T03:45:19;23.80;;;8.77;;
65998;SDS011;52766;56.008;37.440;2023-04-01T03:48:07;26.33;;;9.88;;
65998;SDS011;52766;56.008;37.440;2023-04-01T03:54:01;23.70;;;9.38;;
65998;SDS011;52766;56.008;37.440;2023-04-01T03:56:37;23.23;;;9.20;;
65998;SDS011;52766;56.008;37.440;2023-04-01T03:59:30;29.13;;;10.30;;
65998;SDS011;52766;56.008;37.440;2023-04-01T04:02:19;22.85;;;9.63;;
65998;SDS011;52766;56.008;37.440;2023-04-01T04:09:17;23.60;;;9.38;;
65998;SDS011;52766;56.008;37.440;2023-04-01T04:12:00;21.73;;;9.68;;
65998;SDS011;52766;56.008;37.440;2023-04-01T04:17:23;23.08;;;9.07;;
65998;SDS011;52766;56.008;37.440;2023-04-01T04:47:23;20.48;;;7.95;;
65998;SDS011;52766;56.008;37.440;2023-04-01T04:49:56;21.17;;;8.88;;
65998;SDS011;52766;56.008;37.440;2023-04-01T04:52:30;22.88;;;8.88;;
65998;SDS011;52766;56.008;37.440;2023-04-01T04:55:13;22.02;;;8.43;;
65998;SDS011;52766;56.008;37.440;2023-04-01T05:02:00;33.67;;;11.57;;
65998;SDS011;52766;56.008;37.440;2023-04-01T05:07:56;33.22;;;12.50;;
65998;SDS011;52766;56.008;37.440;2023-04-01T05:10:25;32.67;;;12.70;;
65998;SDS011;52766;56.008;37.440;2023-04-01T05:13:01;34.50;;;12.32;;
65998;SDS011;52766;56.008;37.440;2023-04-01T05:15:37;27.13;;;10.40;;
65998;SDS011;52766;56.008;37.440;2023-04-01T05:18:14;23.67;;;9.20;;
65998;SDS011;52766;56.008;37.440;2023-04-01T05:21:56;21.50;;;8.65;;
65998;SDS011;52766;56.008;37.440;2023-04-01T05:24:28;25.13;;;9.07;;
65998;SDS011;52766;56.008;37.440;2023-04-01T05:27:07;23.98;;;9.98;;
65998;SDS011;52766;56.008;37.440;2023-04-01T05:29:44;21.15;;;8.93;;
65998;SDS011;52766;56.008;37.440;2023-04-01T05:32:33;28.27;;;11.05;;
65998;SDS011;52766;56.008;37.440;2023-04-01T05:35:03;18.88;;;8.23;;
65998;SDS011;52766;56.008;37.440;2023-04-01T05:37:36;22.55;;;8.55;;
65998;SDS011;52766;56.008;37.440;2023-04-01T05:40:20;22.17;;;10.75;;
65998;SDS011;52766;56.008;37.440;2023-04-01T05:43:04;15.57;;;6.93;;
65998;SDS011;52766;56.008;37.440;2023-04-01T05:45:43;21.95;;;8.77;;
65998;SDS011;52766;56.008;37.440;2023-04-01T05:48:34;22.08;;;9.27;;
65998;SDS011;52766;56.008;37.440;2023-04-01T05:51:27;26.65;;;11.88;;
65998;SDS011;52766;56.008;37.440;2023-04-01T05:54:24;20.98;;;8.70;;
65998;SDS011;52766;56.008;37.440;2023-04-01T05:57:02;22.85;;;9.60;;
65998;SDS011;52766;56.008;37.440;2023-04-01T06:02:58;26.00;;;10.18;;
65998;SDS011;52766;56.008;37.440;2023-04-01T06:05:36;28.83;;;12.15;;
65998;SDS011;52766;56.008;37.440;2023-04-01T06:08:14;24.65;;;11.27;;
65998;SDS011;52766;56.008;37.440;2023-04-01T06:19:24;20.63;;;8.43;;
65998;SDS011;52766;56.008;37.440;2023-04-01T06:56:25;19.45;;;8.48;;
65998;SDS011;52766;56.008;37.440;2023-04-01T06:59:27;17.77;;;8.13;;
65998;SDS011;52766;56.008;37.440;2023-04-01T07:02:33;14.93;;;7.43;;
65998;SDS011;52766;56.008;37.440;2023-04-01T07:08:38;16.58;;;7.20;;
65998;SDS011;52766;56.008;37.440;2023-04-01T07:11:19;15.25;;;7.55;;
65998;SDS011;52766;56.008;37.440;2023-04-01T07:22:04;15.25;;;7.80;;
65998;SDS011;52766;56.008;37.440;2023-04-01T07:28:26;15.82;;;8.05;;
65998;SDS011;52766;56.008;37.440;2023-04-01T08:22:16;12.77;;;6.53;;
65998;SDS011;52766;56.008;37.440;2023-04-01T08:25:01;16.02;;;7.75;;
65998;SDS011;52766;56.008;37.440;2023-04-01T13:17:28;15.05;;;6.65;;
65998;SDS011;52766;56.008;37.440;2023-04-01T14:49:37;13.82;;;6.20;;
65998;SDS011;52766;56.008;37.440;2023-04-01T14:56:40;15.27;;;5.65;;
65998;SDS011;52766;56.008;37.440;2023-04-01T18:08:57;27.65;;;12.23;;
65998;SDS011;52766;56.008;37.440;2023-04-01T18:57:52;17.17;;;8.48;;
65998;SDS011;52766;56.008;37.440;2023-04-01T20:01:14;24.20;;;11.00;;
65998;SDS011;52766;56.008;37.440;2023-04-01T20:04:34;22.95;;;10.57;;
65998;SDS011;52766;56.008;37.440;2023-04-01T20:12:09;24.20;;;12.00;;
65998;SDS011;52766;56.008;37.440;2023-04-01T20:15:47;25.15;;;12.30;;
65998;SDS011;52766;56.008;37.440;2023-04-01T20:59:41;24.15;;;11.70;;
65998;SDS011;52766;56.008;37.440;2023-04-01T21:40:31;23.80;;;10.77;;
65998;SDS011;52766;56.008;37.440;2023-04-01T21:46:32;24.88;;;12.27;;
65998;SDS011;52766;56.008;37.440;2023-04-01T21:52:56;21.42;;;10.70;;
65998;SDS011;52766;56.008;37.440;2023-04-01T21:56:01;27.77;;;10.68;;
65998;SDS011;52766;56.008;37.440;2023-04-01T22:17:54;23.52;;;11.13;;
65998;SDS011;52766;56.008;37.440;2023-04-01T22:21:13;23.00;;;11.38;;
65998;SDS011;52766;56.008;37.440;2023-04-01T22:23:52;26.55;;;11.60;;
65998;SDS011;52766;56.008;37.440;2023-04-01T22:32:17;27.05;;;13.30;;
65998;SDS011;52766;56.008;37.440;2023-04-01T22:40:57;26.23;;;11.50;;
65998;SDS011;52766;56.008;37.440;2023-04-01T22:43:41;25.88;;;12.18;;
65998;SDS011;52766;56.008;37.440;2023-04-01T22:54:28;26.17;;;11.77;;
65998;SDS011;52766;56.008;37.440;2023-04-01T22:57:03;24.00;;;12.38;;
65998;SDS011;52766;56.008;37.440;2023-04-01T23:02:24;31.42;;;15.30;;
65998;SDS011;52766;56.008;37.440;2023-04-01T23:04:53;32.85;;;16.60;;
65998;SDS011;52766;56.008;37.440;2023-04-01T23:10:22;35.58;;;17.13;;
65998;SDS011;52766;56.008;37.440;2023-04-01T23:12:57;37.90;;;17.38;;
65998;SDS011;52766;56.008;37.440;2023-04-01T23:15:24;37.25;;;17.52;;
65998;SDS011;52766;56.008;37.440;2023-04-01T23:17:52;32.08;;;15.95;;
65998;SDS011;52766;56.008;37.440;2023-04-01T23:23:19;32.92;;;14.77;;
65998;SDS011;52766;56.008;37.440;2023-04-01T23:31:00;29.90;;;13.57;;
65998;SDS011;52766;56.008;37.440;2023-04-01T23:33:29;25.65;;;13.15;;
65998;SDS011;52766;56.008;37.440;2023-04-01T23:35:57;30.42;;;13.98;;
65998;SDS011;52766;56.008;37.440;2023-04-01T23:38:34;25.73;;;12.80;;
65998;SDS011;52766;56.008;37.440;2023-04-01T23:41:02;30.48;;;14.10;;
65998;SDS011;52766;56.008;37.440;2023-04-01T23:43:30;30.08;;;14.05;;
65998;SDS011;52766;56.008;37.440;2023-04-01T23:46:00;29.52;;;13.43;;
65998;SDS011;52766;56.008;37.440;2023-04-01T23:48:41;31.25;;;14.85;;
65998;SDS011;52766;56.008;37.440;2023-04-01T23:51:12;33.03;;;14.38;;
65998;SDS011;52766;56.008;37.440;2023-04-01T23:53:46;30.27;;;13.57;;
65998;SDS011;52766;56.008;37.440;2023-04-01T23:56:16;29.08;;;12.95;;
65998;SDS011;52766;56.008;37.440;2023-04-01T23:58:50;32.35;;;14.00;;
